createdAt,value
2016-05-11T00:00:43.340Z,0
2016-05-11T00:01:42.483Z,0
2016-05-11T00:02:42.845Z,0
2016-05-11T00:03:44.301Z,0
2016-05-11T00:04:43.225Z,0
2016-05-11T00:05:44.072Z,0
2016-05-11T00:06:44.075Z,0
2016-05-11T00:07:42.202Z,0
2016-05-11T00:08:42.331Z,0
2016-05-11T00:09:44.067Z,0
2016-05-11T00:10:42.804Z,0
2016-05-11T00:11:42.386Z,0
2016-05-11T00:12:42.388Z,0
2016-05-11T00:13:42.062Z,0
2016-05-11T00:14:42.347Z,0
2016-05-11T00:15:41.849Z,0
2016-05-11T00:16:42.118Z,0
2016-05-11T00:17:42.463Z,0
2016-05-11T00:18:42.373Z,0
2016-05-11T00:19:41.938Z,0
2016-05-11T00:20:42.081Z,0
2016-05-11T00:21:41.959Z,0
2016-05-11T00:22:42.680Z,0
2016-05-11T00:23:42.448Z,0
2016-05-11T00:24:42.124Z,0
2016-05-11T00:25:43.095Z,0
2016-05-11T00:26:43.629Z,0
2016-05-11T00:27:41.351Z,0
2016-05-11T00:28:41.478Z,0
2016-05-11T00:29:43.246Z,0
2016-05-11T00:30:43.108Z,0
2016-05-11T00:31:42.939Z,0
2016-05-11T00:32:42.457Z,0
2016-05-11T00:33:41.851Z,0
2016-05-11T00:34:41.556Z,0
2016-05-11T00:35:42.590Z,0
2016-05-11T00:36:42.125Z,0
2016-05-11T00:37:42.064Z,0
2016-05-11T00:38:41.786Z,0
2016-05-11T00:39:41.711Z,0
2016-05-11T00:40:41.744Z,0
2016-05-11T00:41:42.341Z,0
2016-05-11T00:42:42.249Z,0
2016-05-11T00:43:41.612Z,0
2016-05-11T00:44:41.599Z,0
2016-05-11T00:45:41.696Z,0
2016-05-11T00:46:41.339Z,0
2016-05-11T00:47:41.591Z,0
2016-05-11T00:48:41.625Z,0
2016-05-11T00:49:41.441Z,0
2016-05-11T00:50:41.521Z,0
2016-05-11T00:51:42.743Z,0
2016-05-11T00:52:41.370Z,0
2016-05-11T00:53:41.576Z,0
2016-05-11T00:54:42.032Z,0
2016-05-11T00:55:41.348Z,0
2016-05-11T00:56:41.600Z,0
2016-05-11T00:57:41.259Z,0
2016-05-11T00:58:42.215Z,0
2016-05-11T00:59:42.373Z,0
2016-05-11T01:00:41.298Z,0
2016-05-11T01:01:41.269Z,0
2016-05-11T01:02:41.412Z,0
2016-05-11T01:03:40.978Z,0
2016-05-11T01:04:41.278Z,0
2016-05-11T01:05:42.296Z,0
2016-05-11T01:06:42.142Z,0
2016-05-11T01:07:42.239Z,0
2016-05-11T01:08:41.147Z,0
2016-05-11T01:09:41.025Z,0
2016-05-11T01:10:42.216Z,0
2016-05-11T01:11:41.859Z,0
2016-05-11T01:12:41.019Z,0
2016-05-11T01:13:41.021Z,0
2016-05-11T01:14:41.664Z,0
2016-05-11T01:15:41.432Z,0
2016-05-11T01:16:40.764Z,0
2016-05-11T01:17:41.156Z,0
2016-05-11T01:18:40.690Z,0
2016-05-11T01:19:41.615Z,0
2016-05-11T01:20:41.258Z,0
2016-05-11T01:21:40.933Z,0
2016-05-11T01:22:40.966Z,0
2016-05-11T01:23:41.126Z,0
2016-05-11T01:24:42.065Z,0
2016-05-11T01:25:40.694Z,0
2016-05-11T01:26:40.852Z,0
2016-05-11T01:27:40.934Z,0
2016-05-11T01:28:40.546Z,0
2016-05-11T01:29:40.860Z,0
2016-05-11T01:30:40.847Z,0
2016-05-11T01:31:40.615Z,0
2016-05-11T01:32:41.635Z,0
2016-05-11T01:33:40.700Z,0
2016-05-11T01:34:40.999Z,0
2016-05-11T01:35:40.814Z,0
2016-05-11T01:36:40.786Z,0
2016-05-11T01:37:40.178Z,0
2016-05-11T01:38:41.542Z,0
2016-05-11T01:39:40.372Z,0
2016-05-11T01:40:40.858Z,0
2016-05-11T01:41:40.675Z,0
2016-05-11T01:42:40.599Z,0
2016-05-11T01:43:40.477Z,0
2016-05-11T01:44:40.526Z,0
2016-05-11T01:45:40.903Z,0
2016-05-11T01:46:40.140Z,0
2016-05-11T01:47:40.565Z,0
2016-05-11T01:48:40.194Z,0
2016-05-11T01:49:40.102Z,0
2016-05-11T01:50:40.652Z,0
2016-05-11T01:51:40.279Z,0
2016-05-11T01:52:40.032Z,0
2016-05-11T01:53:40.488Z,0
2016-05-11T01:54:40.006Z,0
2016-05-11T01:55:40.009Z,0
2016-05-11T01:56:40.590Z,0
2016-05-11T01:57:40.124Z,0
2016-05-11T01:58:40.110Z,0
2016-05-11T01:59:40.332Z,0
2016-05-11T02:00:39.990Z,0
2016-05-11T02:01:40.837Z,0
2016-05-11T02:02:40.167Z,0
2016-05-11T02:03:41.421Z,0
2016-05-11T02:04:41.112Z,0
2016-05-11T02:05:40.723Z,0
2016-05-11T02:06:39.991Z,0
2016-05-11T02:07:40.978Z,0
2016-05-11T02:08:41.559Z,0
2016-05-11T02:09:39.921Z,0
2016-05-11T02:10:39.861Z,0
2016-05-11T02:11:41.364Z,0
2016-05-11T02:12:40.117Z,0
2016-05-11T02:13:39.807Z,0
2016-05-11T02:14:40.044Z,0
2016-05-11T02:15:40.453Z,0
2016-05-11T02:16:39.722Z,0
2016-05-11T02:17:40.005Z,0
2016-05-11T02:18:40.789Z,0
2016-05-11T02:19:40.464Z,0
2016-05-11T02:20:41.091Z,0
2016-05-11T02:21:39.860Z,0
2016-05-11T02:22:39.628Z,0
2016-05-11T02:23:39.709Z,0
2016-05-11T02:24:40.305Z,0
2016-05-11T02:25:40.151Z,0
2016-05-11T02:26:41.279Z,0
2016-05-11T02:27:40.016Z,0
2016-05-11T02:28:40.098Z,0
2016-05-11T02:29:40.350Z,0
2016-05-11T02:30:39.618Z,0
2016-05-11T02:31:39.840Z,0
2016-05-11T02:32:39.437Z,0
2016-05-11T02:33:39.517Z,0
2016-05-11T02:34:39.410Z,0
2016-05-11T02:35:39.381Z,0
2016-05-11T02:36:39.619Z,0
2016-05-11T02:37:40.200Z,0
2016-05-11T02:38:40.531Z,0
2016-05-11T02:39:39.378Z,0
2016-05-11T02:40:39.301Z,0
2016-05-11T02:41:40.195Z,0
2016-05-11T02:42:40.150Z,0
2016-05-11T02:43:39.044Z,0
2016-05-11T02:44:39.515Z,0
2016-05-11T02:45:39.175Z,0
2016-05-11T02:46:39.708Z,0
2016-05-11T02:47:39.430Z,0
2016-05-11T02:48:39.230Z,0
2016-05-11T02:49:38.966Z,0
2016-05-11T02:50:39.141Z,0
2016-05-11T02:51:40.003Z,0
2016-05-11T02:52:38.865Z,0
2016-05-11T02:53:39.165Z,0
2016-05-11T02:54:39.043Z,0
2016-05-11T02:55:38.779Z,0
2016-05-11T02:56:39.219Z,0
2016-05-11T02:57:38.987Z,0
2016-05-11T02:58:39.272Z,0
2016-05-11T02:59:39.603Z,0
2016-05-11T03:00:39.090Z,0
2016-05-11T03:01:39.186Z,0
2016-05-11T03:02:38.673Z,0
2016-05-11T03:03:39.362Z,0
2016-05-11T03:04:38.725Z,0
2016-05-11T03:05:39.073Z,0
2016-05-11T03:06:40.200Z,0
2016-05-11T03:07:38.640Z,0
2016-05-11T03:08:39.158Z,0
2016-05-11T03:09:38.786Z,0
2016-05-11T03:10:38.944Z,0
2016-05-11T03:11:39.853Z,0
2016-05-11T03:12:39.153Z,0
2016-05-11T03:13:38.687Z,0
2016-05-11T03:14:39.564Z,0
2016-05-11T03:15:40.036Z,0
2016-05-11T03:16:38.445Z,0
2016-05-11T03:17:39.011Z,0
2016-05-11T03:18:38.919Z,0
2016-05-11T03:19:38.313Z,0
2016-05-11T03:20:40.174Z,0
2016-05-11T03:21:38.505Z,0
2016-05-11T03:22:38.508Z,0
2016-05-11T03:23:38.901Z,0
2016-05-11T03:24:38.467Z,0
2016-05-11T03:25:38.422Z,0
2016-05-11T03:26:38.863Z,0
2016-05-11T03:27:38.210Z,0
2016-05-11T03:28:38.243Z,0
2016-05-11T03:29:38.807Z,0
2016-05-11T03:30:38.552Z,0
2016-05-11T03:31:38.734Z,0
2016-05-11T03:32:38.573Z,0
2016-05-11T03:33:39.148Z,0
2016-05-11T03:34:38.346Z,0
2016-05-11T03:35:39.149Z,0
2016-05-11T03:36:39.104Z,0
2016-05-11T03:37:38.074Z,0
2016-05-11T03:38:39.044Z,0
2016-05-11T03:39:38.592Z,0
2016-05-11T03:40:38.623Z,0
2016-05-11T03:41:39.569Z,0
2016-05-11T03:42:38.326Z,0
2016-05-11T03:43:38.693Z,0
2016-05-11T03:44:38.592Z,0
2016-05-11T03:45:38.849Z,0
2016-05-11T03:46:38.369Z,0
2016-05-11T03:47:38.420Z,0
2016-05-11T03:48:38.565Z,0
2016-05-11T03:49:38.367Z,0
2016-05-11T03:50:38.450Z,0
2016-05-11T03:51:38.295Z,0
2016-05-11T03:52:37.956Z,0
2016-05-11T03:53:38.427Z,0
2016-05-11T03:54:38.384Z,0
2016-05-11T03:55:38.152Z,0
2016-05-11T03:56:52.202Z,0
2016-05-11T03:57:38.096Z,0
2016-05-11T03:58:37.880Z,0
2016-05-11T03:59:38.492Z,0
2016-05-11T04:00:38.559Z,0
2016-05-11T04:01:41.389Z,0
2016-05-11T04:02:38.158Z,0
2016-05-11T04:03:37.817Z,0
2016-05-11T04:04:37.803Z,0
2016-05-11T04:05:39.446Z,0
2016-05-11T04:06:37.918Z,0
2016-05-11T04:07:38.140Z,0
2016-05-11T04:08:38.658Z,0
2016-05-11T04:09:38.114Z,0
2016-05-11T04:10:37.960Z,0
2016-05-11T04:11:38.368Z,0
2016-05-11T04:12:37.496Z,0
2016-05-11T04:13:38.219Z,0
2016-05-11T04:14:38.033Z,0
2016-05-11T04:15:37.614Z,0
2016-05-11T04:16:37.851Z,0
2016-05-11T04:17:38.088Z,0
2016-05-11T04:18:37.872Z,0
2016-05-11T04:19:38.015Z,0
2016-05-11T04:20:38.799Z,0
2016-05-11T04:21:38.021Z,0
2016-05-11T04:22:37.804Z,0
2016-05-11T04:23:38.073Z,0
2016-05-11T04:24:37.904Z,0
2016-05-11T04:25:40.860Z,0
2016-05-11T04:26:38.410Z,0
2016-05-11T04:27:38.115Z,0
2016-05-11T04:28:38.181Z,0
2016-05-11T04:29:38.026Z,0
2016-05-11T04:30:50.873Z,0
2016-05-11T04:31:37.844Z,0
2016-05-11T04:32:38.348Z,0
2016-05-11T04:33:37.850Z,0
2016-05-11T04:34:38.227Z,5
2016-05-11T04:35:38.636Z,5
2016-05-11T04:36:51.264Z,5
2016-05-11T04:37:51.032Z,5
2016-05-11T04:38:38.661Z,0
2016-05-11T04:39:38.428Z,5
2016-05-11T04:40:38.197Z,0
2016-05-11T04:41:51.450Z,5
2016-05-11T04:42:51.561Z,5
2016-05-11T04:43:51.221Z,5
2016-05-11T04:44:37.802Z,5
2016-05-11T04:45:38.085Z,5
2016-05-11T04:46:38.041Z,5
2016-05-11T04:47:38.466Z,5
2016-05-11T04:48:37.437Z,5
2016-05-11T04:49:37.909Z,5
2016-05-11T04:50:38.365Z,5
2016-05-11T04:51:38.070Z,5
2016-05-11T04:52:51.010Z,5
2016-05-11T04:53:50.795Z,5
2016-05-11T04:54:51.000Z,5
2016-05-11T04:55:51.129Z,5
2016-05-11T04:56:53.848Z,5
2016-05-11T04:57:38.524Z,5
2016-05-11T04:58:39.854Z,0
2016-05-11T04:59:38.592Z,0
2016-05-11T05:00:38.563Z,5
2016-05-11T05:01:38.582Z,5
2016-05-11T05:02:37.147Z,5
2016-05-11T05:03:37.165Z,5
2016-05-11T05:04:37.840Z,5
2016-05-11T05:05:37.577Z,5
2016-05-11T05:06:37.751Z,5
2016-05-11T05:07:38.207Z,5
2016-05-11T05:08:37.475Z,5
2016-05-11T05:09:37.244Z,5
2016-05-11T05:10:37.403Z,5
2016-05-11T05:11:37.749Z,5
2016-05-11T05:12:36.892Z,5
2016-05-11T05:13:36.520Z,5
2016-05-11T05:14:36.632Z,5
2016-05-11T05:15:36.807Z,5
2016-05-11T05:16:37.232Z,5
2016-05-11T05:17:37.077Z,5
2016-05-11T05:18:37.549Z,5
2016-05-11T05:19:37.193Z,5
2016-05-11T05:20:36.757Z,5
2016-05-11T05:21:36.604Z,5
2016-05-11T05:22:36.591Z,5
2016-05-11T05:23:37.062Z,5
2016-05-11T05:24:37.035Z,5
2016-05-11T05:25:36.583Z,5
2016-05-11T05:26:37.493Z,5
2016-05-11T05:27:36.698Z,5
2016-05-11T05:28:36.764Z,5
2016-05-11T05:29:37.094Z,5
2016-05-11T05:30:37.801Z,5
2016-05-11T05:31:37.084Z,5
2016-05-11T05:32:36.431Z,10
2016-05-11T05:33:36.543Z,10
2016-05-11T05:34:36.811Z,10
2016-05-11T05:35:36.454Z,10
2016-05-11T05:36:37.550Z,10
2016-05-11T05:37:36.444Z,10
2016-05-11T05:38:36.431Z,10
2016-05-11T05:39:36.387Z,10
2016-05-11T05:40:36.717Z,10
2016-05-11T05:41:36.564Z,10
2016-05-11T05:42:36.614Z,10
2016-05-11T05:43:36.429Z,10
2016-05-11T05:44:36.150Z,10
2016-05-11T05:45:36.669Z,10
2016-05-11T05:46:36.952Z,10
2016-05-11T05:47:36.377Z,10
2016-05-11T05:48:36.943Z,10
2016-05-11T05:49:36.305Z,10
2016-05-11T05:50:36.229Z,10
2016-05-11T05:51:36.529Z,10
2016-05-11T05:52:35.609Z,10
2016-05-11T05:53:35.799Z,10
2016-05-11T05:54:36.130Z,10
2016-05-11T05:55:35.773Z,10
2016-05-11T05:56:36.260Z,10
2016-05-11T05:57:36.029Z,10
2016-05-11T05:58:36.875Z,10
2016-05-11T05:59:35.409Z,10
2016-05-11T06:00:36.053Z,10
2016-05-11T06:01:36.430Z,10
2016-05-11T06:02:35.574Z,10
2016-05-11T06:03:35.342Z,10
2016-05-11T06:04:36.032Z,10
2016-05-11T06:05:35.753Z,10
2016-05-11T06:06:36.069Z,15
2016-05-11T06:07:36.759Z,15
2016-05-11T06:08:37.449Z,15
2016-05-11T06:09:35.531Z,15
2016-05-11T06:10:35.642Z,15
2016-05-11T06:11:35.332Z,15
2016-05-11T06:12:35.695Z,15
2016-05-11T06:13:35.431Z,15
2016-05-11T06:14:35.981Z,15
2016-05-11T06:15:35.249Z,15
2016-05-11T06:16:36.018Z,15
2016-05-11T06:17:35.349Z,15
2016-05-11T06:18:35.679Z,15
2016-05-11T06:19:45.433Z,15
2016-05-11T06:20:38.512Z,15
2016-05-11T06:21:53.171Z,15
2016-05-11T06:22:37.706Z,15
2016-05-11T06:23:37.162Z,15
2016-05-11T06:24:42.054Z,15
2016-05-11T06:25:46.479Z,15
2016-05-11T06:26:43.857Z,15
2016-05-11T06:27:34.966Z,15
2016-05-11T06:28:35.251Z,15
2016-05-11T06:29:35.082Z,15
2016-05-11T06:30:36.131Z,15
2016-05-11T06:31:35.368Z,15
2016-05-11T06:32:35.276Z,15
2016-05-11T06:33:35.843Z,15
2016-05-11T06:34:35.689Z,15
2016-05-11T06:35:35.145Z,15
2016-05-11T06:36:35.538Z,15
2016-05-11T06:37:34.775Z,15
2016-05-11T06:38:35.325Z,15
2016-05-11T06:39:35.436Z,15
2016-05-11T06:40:38.364Z,15
2016-05-11T06:41:35.973Z,15
2016-05-11T06:42:35.397Z,15
2016-05-11T06:43:35.009Z,15
2016-05-11T06:44:35.246Z,15
2016-05-11T06:45:35.296Z,15
2016-05-11T06:46:34.331Z,15
2016-05-11T06:47:35.130Z,15
2016-05-11T06:48:35.180Z,15
2016-05-11T06:49:35.932Z,15
2016-05-11T06:50:36.013Z,15
2016-05-11T06:51:35.735Z,15
2016-05-11T06:52:34.862Z,15
2016-05-11T06:53:34.630Z,15
2016-05-11T06:54:35.118Z,15
2016-05-11T06:55:35.245Z,15
2016-05-11T06:56:48.688Z,15
2016-05-11T06:57:34.829Z,15
2016-05-11T06:58:35.534Z,15
2016-05-11T06:59:34.724Z,15
2016-05-11T07:00:35.040Z,15
2016-05-11T07:01:36.433Z,15
2016-05-11T07:02:35.421Z,15
2016-05-11T07:03:35.391Z,15
2016-05-11T07:04:35.035Z,15
2016-05-11T07:05:35.054Z,15
2016-05-11T07:06:35.431Z,15
2016-05-11T07:07:35.684Z,15
2016-05-11T07:08:34.795Z,15
2016-05-11T07:09:35.423Z,15
2016-05-11T07:10:34.692Z,15
2016-05-11T07:11:34.913Z,15
2016-05-11T07:12:35.150Z,15
2016-05-11T07:13:47.937Z,15
2016-05-11T07:14:35.015Z,15
2016-05-11T07:15:35.674Z,15
2016-05-11T07:16:34.989Z,15
2016-05-11T07:17:35.241Z,15
2016-05-11T07:18:35.416Z,15
2016-05-11T07:19:48.202Z,15
2016-05-11T07:20:35.093Z,15
2016-05-11T07:21:35.549Z,15
2016-05-11T07:22:47.898Z,15
2016-05-11T07:23:35.132Z,15
2016-05-11T07:24:36.416Z,15
2016-05-11T07:25:47.656Z,15
2016-05-11T07:26:35.249Z,15
2016-05-11T07:27:47.944Z,15
2016-05-11T07:28:47.696Z,15
2016-05-11T07:29:35.321Z,15
2016-05-11T07:30:35.026Z,15
2016-05-11T07:31:34.623Z,15
2016-05-11T07:32:47.722Z,15
2016-05-11T07:33:48.740Z,15
2016-05-11T07:35:02.462Z,15
2016-05-11T07:35:47.731Z,15
2016-05-11T07:36:35.324Z,15
2016-05-11T07:37:34.201Z,15
2016-05-11T07:38:34.876Z,15
2016-05-11T07:39:34.801Z,15
2016-05-11T07:40:35.304Z,15
2016-05-11T07:41:34.884Z,15
2016-05-11T07:42:35.887Z,15
2016-05-11T07:43:33.968Z,15
2016-05-11T07:44:34.705Z,15
2016-05-11T07:45:34.458Z,15
2016-05-11T07:46:34.929Z,15
2016-05-11T07:47:34.464Z,15
2016-05-11T07:48:34.638Z,15
2016-05-11T07:49:33.719Z,15
2016-05-11T07:50:34.127Z,15
2016-05-11T07:51:34.114Z,15
2016-05-11T07:52:34.616Z,15
2016-05-11T07:53:33.947Z,15
2016-05-11T07:54:33.951Z,15
2016-05-11T07:55:34.000Z,15
2016-05-11T07:56:33.722Z,15
2016-05-11T07:57:33.646Z,15
2016-05-11T07:58:36.289Z,15
2016-05-11T07:59:36.293Z,15
2016-05-11T08:00:35.686Z,15
2016-05-11T08:01:35.407Z,15
2016-05-11T08:02:35.285Z,15
2016-05-11T08:03:35.724Z,15
2016-05-11T08:04:34.227Z,15
2016-05-11T08:05:34.121Z,15
2016-05-11T08:06:34.499Z,15
2016-05-11T08:07:34.767Z,15
2016-05-11T08:08:34.176Z,15
2016-05-11T08:09:33.850Z,15
2016-05-11T08:10:34.337Z,15
2016-05-11T08:11:34.903Z,15
2016-05-11T08:12:34.953Z,15
2016-05-11T08:13:34.048Z,15
2016-05-11T08:14:36.176Z,15
2016-05-11T08:15:34.586Z,15
2016-05-11T08:16:34.900Z,15
2016-05-11T08:17:34.169Z,15
2016-05-11T08:18:34.437Z,15
2016-05-11T08:19:34.017Z,15
2016-05-11T08:20:34.349Z,15
2016-05-11T08:21:34.617Z,15
2016-05-11T08:22:33.791Z,15
2016-05-11T08:23:34.138Z,15
2016-05-11T08:24:34.235Z,15
2016-05-11T08:25:35.331Z,15
2016-05-11T08:26:33.833Z,15
2016-05-11T08:27:34.821Z,15
2016-05-11T08:28:34.558Z,15
2016-05-11T08:29:32.763Z,15
2016-05-11T08:30:34.532Z,15
2016-05-11T08:31:33.722Z,15
2016-05-11T08:32:34.349Z,15
2016-05-11T08:33:34.571Z,15
2016-05-11T08:34:34.433Z,15
2016-05-11T08:35:34.576Z,20
2016-05-11T08:36:33.438Z,20
2016-05-11T08:37:34.363Z,20
2016-05-11T08:38:33.522Z,20
2016-05-11T08:39:33.728Z,20
2016-05-11T08:40:33.824Z,20
2016-05-11T08:41:32.937Z,20
2016-05-11T08:42:33.611Z,20
2016-05-11T08:43:32.317Z,20
2016-05-11T08:44:32.632Z,20
2016-05-11T08:45:32.744Z,20
2016-05-11T08:46:32.919Z,20
2016-05-11T08:47:32.672Z,20
2016-05-11T08:48:32.767Z,20
2016-05-11T08:49:34.287Z,20
2016-05-11T08:50:32.914Z,20
2016-05-11T08:51:34.494Z,20
2016-05-11T08:52:32.856Z,20
2016-05-11T08:53:32.531Z,20
2016-05-11T08:54:33.127Z,20
2016-05-11T08:55:34.068Z,20
2016-05-11T08:56:32.899Z,20
2016-05-11T08:57:33.355Z,20
2016-05-11T08:58:32.888Z,20
2016-05-11T08:59:32.954Z,20
2016-05-11T09:00:35.425Z,20
2016-05-11T09:01:33.396Z,20
2016-05-11T09:02:33.227Z,20
2016-05-11T09:03:32.840Z,20
2016-05-11T09:04:33.296Z,20
2016-05-11T09:05:33.579Z,20
2016-05-11T09:06:33.690Z,20
2016-05-11T09:07:32.897Z,20
2016-05-11T09:08:34.040Z,20
2016-05-11T09:09:33.292Z,20
2016-05-11T09:10:33.327Z,20
2016-05-11T09:11:33.267Z,20
2016-05-11T09:12:32.317Z,20
2016-05-11T09:13:32.460Z,20
2016-05-11T09:14:32.603Z,20
2016-05-11T09:15:32.903Z,20
2016-05-11T09:16:33.217Z,20
2016-05-11T09:17:33.048Z,20
2016-05-11T09:18:32.473Z,20
2016-05-11T09:19:33.569Z,20
2016-05-11T09:20:32.761Z,20
2016-05-11T09:21:32.591Z,20
2016-05-11T09:22:46.065Z,20
2016-05-11T09:23:32.956Z,20
2016-05-11T09:24:32.583Z,20
2016-05-11T09:25:32.649Z,20
2016-05-11T09:26:32.355Z,20
2016-05-11T09:27:32.294Z,20
2016-05-11T09:28:32.625Z,20
2016-05-11T09:29:32.113Z,20
2016-05-11T09:30:34.177Z,20
2016-05-11T09:31:32.180Z,20
2016-05-11T09:32:33.183Z,20
2016-05-11T09:33:32.670Z,20
2016-05-11T09:34:32.454Z,20
2016-05-11T09:35:32.004Z,20
2016-05-11T09:36:31.928Z,20
2016-05-11T09:37:32.852Z,20
2016-05-11T09:38:32.933Z,20
2016-05-11T09:39:33.062Z,20
2016-05-11T09:40:33.596Z,20
2016-05-11T09:41:32.285Z,20
2016-05-11T09:42:31.882Z,20
2016-05-11T09:43:32.478Z,20
2016-05-11T09:44:31.778Z,20
2016-05-11T09:45:34.186Z,20
2016-05-11T09:46:45.595Z,20
2016-05-11T09:47:32.583Z,20
2016-05-11T09:48:32.086Z,20
2016-05-11T09:49:33.244Z,20
2016-05-11T09:50:34.231Z,20
2016-05-11T09:51:33.078Z,20
2016-05-11T09:52:45.878Z,25
2016-05-11T09:53:32.083Z,25
2016-05-11T09:54:32.367Z,25
2016-05-11T09:55:46.494Z,25
2016-05-11T09:56:33.091Z,25
2016-05-11T09:57:32.672Z,25
2016-05-11T09:58:31.050Z,25
2016-05-11T09:59:45.161Z,25
2016-05-11T10:00:32.727Z,25
2016-05-11T10:01:32.932Z,25
2016-05-11T10:02:31.357Z,25
2016-05-11T10:03:31.954Z,25
2016-05-11T10:04:32.362Z,25
2016-05-11T10:05:31.100Z,30
2016-05-11T10:06:32.212Z,25
2016-05-11T10:07:32.496Z,25
2016-05-11T10:08:32.077Z,25
2016-05-11T10:09:45.173Z,25
2016-05-11T10:10:45.301Z,25
2016-05-11T10:11:33.116Z,25
2016-05-11T10:12:44.946Z,25
2016-05-11T10:13:31.434Z,25
2016-05-11T10:14:31.156Z,25
2016-05-11T10:15:31.501Z,25
2016-05-11T10:16:35.379Z,25
2016-05-11T10:17:31.648Z,25
2016-05-11T10:18:32.291Z,25
2016-05-11T10:19:32.982Z,30
2016-05-11T10:20:44.687Z,30
2016-05-11T10:21:30.862Z,30
2016-05-11T10:22:44.958Z,30
2016-05-11T10:23:44.929Z,30
2016-05-11T10:24:30.839Z,30
2016-05-11T10:25:30.747Z,30
2016-05-11T10:26:32.547Z,30
2016-05-11T10:27:32.456Z,30
2016-05-11T10:28:30.849Z,30
2016-05-11T10:29:31.617Z,30
2016-05-11T10:30:30.917Z,30
2016-05-11T10:32:53.845Z,30
2016-05-11T10:33:08.003Z,30
2016-05-11T10:34:08.163Z,30
2016-05-11T10:35:08.024Z,30
2016-05-11T10:36:08.216Z,30
2016-05-11T10:37:08.123Z,30
2016-05-11T10:38:08.877Z,30
2016-05-11T10:39:08.551Z,30
2016-05-11T10:40:07.929Z,30
2016-05-11T10:41:08.166Z,30
2016-05-11T10:42:08.138Z,30
2016-05-11T10:43:11.109Z,30
2016-05-11T10:44:08.939Z,30
2016-05-11T10:45:07.739Z,30
2016-05-11T10:46:08.820Z,30
2016-05-11T10:47:08.103Z,30
2016-05-11T10:48:08.059Z,30
2016-05-11T10:49:10.437Z,35
2016-05-11T10:50:08.503Z,35
2016-05-11T10:51:08.130Z,35
2016-05-11T10:52:08.804Z,35
2016-05-11T10:53:08.292Z,35
2016-05-11T10:54:11.670Z,35
2016-05-11T10:55:08.719Z,35
2016-05-11T10:56:09.128Z,35
2016-05-11T10:57:07.802Z,35
2016-05-11T10:58:08.195Z,35
2016-05-11T10:59:09.589Z,30
2016-05-11T11:00:07.717Z,35
2016-05-11T11:01:08.250Z,35
2016-05-11T11:02:08.456Z,35
2016-05-11T11:03:08.209Z,35
2016-05-11T11:04:09.337Z,40
2016-05-11T11:05:07.683Z,35
2016-05-11T11:06:08.108Z,35
2016-05-11T11:07:07.642Z,35
2016-05-11T11:08:08.785Z,35
2016-05-11T11:09:08.350Z,40
2016-05-11T11:10:08.321Z,40
2016-05-11T11:11:07.700Z,45
2016-05-11T11:12:07.905Z,45
2016-05-11T11:13:07.814Z,40
2016-05-11T11:14:09.021Z,35
2016-05-11T11:15:08.538Z,35
2016-05-11T11:16:07.681Z,35
2016-05-11T11:17:07.575Z,35
2016-05-11T11:18:07.875Z,35
2016-05-11T11:19:08.846Z,35
2016-05-11T11:20:08.254Z,40
2016-05-11T11:21:09.227Z,40
2016-05-11T11:22:08.635Z,40
2016-05-11T11:23:07.513Z,40
2016-05-11T11:24:09.219Z,40
2016-05-11T11:25:08.612Z,40
2016-05-11T11:26:08.225Z,40
2016-05-11T11:27:07.461Z,40
2016-05-11T11:28:07.448Z,40
2016-05-11T11:29:08.889Z,40
2016-05-11T11:30:07.828Z,40
2016-05-11T11:31:09.050Z,40
2016-05-11T11:32:10.053Z,40
2016-05-11T11:33:07.197Z,40
2016-05-11T11:34:09.121Z,40
2016-05-11T11:35:08.874Z,45
2016-05-11T11:36:07.454Z,45
2016-05-11T11:37:07.550Z,45
2016-05-11T11:38:09.569Z,45
2016-05-11T11:39:09.649Z,45
2016-05-11T11:40:07.355Z,45
2016-05-11T11:41:08.608Z,45
2016-05-11T11:42:07.064Z,45
2016-05-11T11:43:07.035Z,45
2016-05-11T11:44:08.054Z,45
2016-05-11T11:45:06.979Z,45
2016-05-11T11:46:07.622Z,50
2016-05-11T11:47:07.031Z,75
2016-05-11T11:48:06.799Z,325
2016-05-11T11:49:07.771Z,105
2016-05-11T11:50:08.023Z,50
2016-05-11T11:51:06.947Z,50
2016-05-11T11:52:07.326Z,75
2016-05-11T11:53:06.828Z,90
2016-05-11T11:54:07.784Z,45
2016-05-11T11:55:06.817Z,50
2016-05-11T11:56:07.477Z,75
2016-05-11T11:57:07.151Z,65
2016-05-11T11:58:06.903Z,125
2016-05-11T11:59:08.657Z,55
2016-05-11T12:00:08.863Z,55
2016-05-11T12:01:07.959Z,55
2016-05-11T12:02:08.352Z,80
2016-05-11T12:03:07.855Z,160
2016-05-11T12:04:07.123Z,70
2016-05-11T12:05:07.657Z,175
2016-05-11T12:06:09.332Z,350
2016-05-11T12:07:07.272Z,135
2016-05-11T12:08:07.228Z,120
2016-05-11T12:09:06.402Z,315
2016-05-11T12:10:06.889Z,145
2016-05-11T12:11:06.424Z,50
2016-05-11T12:12:06.677Z,75
2016-05-11T12:13:07.601Z,100
2016-05-11T12:14:06.963Z,65
2016-05-11T12:15:06.981Z,80
2016-05-11T12:16:07.155Z,75
2016-05-11T12:17:06.862Z,75
2016-05-11T12:18:06.785Z,55
2016-05-11T12:19:06.570Z,55
2016-05-11T12:20:07.135Z,55
2016-05-11T12:21:06.810Z,55
2016-05-11T12:22:06.765Z,55
2016-05-11T12:23:07.065Z,60
2016-05-11T12:24:07.256Z,55
2016-05-11T12:25:06.867Z,240
2016-05-11T12:26:07.339Z,380
2016-05-11T12:27:07.279Z,340
2016-05-11T12:28:06.251Z,65
2016-05-11T12:29:06.690Z,130
2016-05-11T12:30:06.662Z,425
2016-05-11T12:31:07.320Z,300
2016-05-11T12:32:07.761Z,290
2016-05-11T12:33:06.530Z,745
2016-05-11T12:34:06.907Z,75
2016-05-11T12:35:06.566Z,60
2016-05-11T12:36:06.569Z,80
2016-05-11T12:37:07.659Z,90
2016-05-11T12:38:07.412Z,70
2016-05-11T12:39:20.806Z,90
2016-05-11T12:40:06.622Z,100
2016-05-11T12:41:06.453Z,95
2016-05-11T12:42:06.627Z,60
2016-05-11T12:43:06.647Z,55
2016-05-11T12:44:06.978Z,55
2016-05-11T12:45:06.701Z,55
2016-05-11T12:46:07.737Z,60
2016-05-11T12:47:07.312Z,55
2016-05-11T12:48:06.712Z,65
2016-05-11T12:49:06.534Z,110
2016-05-11T12:50:06.777Z,60
2016-05-11T12:51:07.005Z,595
2016-05-11T12:52:06.245Z,55
2016-05-11T12:53:07.219Z,75
2016-05-11T12:54:06.723Z,190
2016-05-11T12:55:07.447Z,110
2016-05-11T12:56:06.858Z,65
2016-05-11T12:57:07.455Z,190
2016-05-11T12:58:06.474Z,150
2016-05-11T12:59:06.963Z,155
2016-05-11T13:00:06.654Z,75
2016-05-11T13:01:06.907Z,65
2016-05-11T13:02:06.894Z,60
2016-05-11T13:03:21.054Z,60
2016-05-11T13:04:06.400Z,65
2016-05-11T13:05:06.403Z,65
2016-05-11T13:06:06.313Z,65
2016-05-11T13:07:07.800Z,75
2016-05-11T13:08:06.411Z,70
2016-05-11T13:09:07.430Z,90
2016-05-11T13:10:06.746Z,75
2016-05-11T13:11:06.451Z,75
2016-05-11T13:12:06.735Z,75
2016-05-11T13:13:06.207Z,120
2016-05-11T13:14:06.522Z,145
2016-05-11T13:15:06.337Z,190
2016-05-11T13:16:06.324Z,245
2016-05-11T13:17:05.890Z,395
2016-05-11T13:18:06.001Z,470
2016-05-11T13:19:06.395Z,630
2016-05-11T13:20:06.960Z,1240
2016-05-11T13:21:06.196Z,1200
2016-05-11T13:22:07.372Z,1445
2016-05-11T13:23:06.499Z,950
2016-05-11T13:24:06.439Z,1145
2016-05-11T13:25:06.912Z,1035
2016-05-11T13:26:06.851Z,1160
2016-05-11T13:27:07.041Z,1060
2016-05-11T13:28:05.826Z,1120
2016-05-11T13:29:06.468Z,1190
2016-05-11T13:30:05.940Z,1225
2016-05-11T13:31:19.724Z,1300
2016-05-11T13:32:06.181Z,1035
2016-05-11T13:33:06.198Z,1260
2016-05-11T13:34:06.701Z,950
2016-05-11T13:35:05.531Z,1190
2016-05-11T13:36:06.362Z,1185
2016-05-11T13:37:07.208Z,1160
2016-05-11T13:38:06.368Z,1225
2016-05-11T13:39:05.792Z,1120
2016-05-11T13:40:06.170Z,840
2016-05-11T13:41:05.954Z,870
2016-05-11T13:42:05.941Z,880
2016-05-11T13:43:06.975Z,650
2016-05-11T13:44:05.634Z,725
2016-05-11T13:45:05.966Z,945
2016-05-11T13:46:05.999Z,480
2016-05-11T13:47:05.627Z,855
2016-05-11T13:48:05.254Z,520
2016-05-11T13:49:05.772Z,105
2016-05-11T13:50:06.010Z,575
2016-05-11T13:51:05.591Z,325
2016-05-11T13:52:05.796Z,530
2016-05-11T13:53:07.532Z,610
2016-05-11T13:54:06.317Z,660
2016-05-11T13:55:05.601Z,195
2016-05-11T13:56:06.432Z,230
2016-05-11T13:57:05.373Z,140
2016-05-11T13:58:05.688Z,120
2016-05-11T13:59:05.768Z,120
2016-05-11T14:00:05.833Z,140
2016-05-11T14:01:06.804Z,185
2016-05-11T14:02:06.292Z,105
2016-05-11T14:03:05.764Z,135
2016-05-11T14:04:06.923Z,120
2016-05-11T14:05:05.534Z,165
2016-05-11T14:06:05.553Z,105
2016-05-11T14:07:06.195Z,170
2016-05-11T14:09:05.389Z,200
2016-05-11T14:10:06.314Z,195
2016-05-11T14:11:06.536Z,200
2016-05-11T14:12:06.333Z,175
2016-05-11T14:13:06.962Z,145
2016-05-11T14:14:06.371Z,35
2016-05-11T14:15:05.232Z,25
2016-05-11T14:16:06.549Z,25
2016-05-11T14:17:06.254Z,25
2016-05-11T14:18:05.053Z,25
2016-05-11T14:19:05.399Z,25
2016-05-11T14:20:06.199Z,25
2016-05-11T14:21:05.374Z,25
2016-05-11T14:22:06.252Z,30
2016-05-11T14:23:05.363Z,35
2016-05-11T14:24:05.070Z,50
2016-05-11T14:25:06.587Z,70